createdAt,value
2019-01-26T00:00:16.534Z,8.88
2019-01-26T00:02:45.001Z,9.25
2019-01-26T00:05:13.493Z,8.45
2019-01-26T00:07:41.927Z,10.20
2019-01-26T00:10:10.608Z,9.25
2019-01-26T00:12:39.026Z,9.00
2019-01-26T00:15:11.398Z,10.43
2019-01-26T00:17:39.849Z,11.12
2019-01-26T00:20:09.556Z,9.53
2019-01-26T00:22:38.199Z,10.48
2019-01-26T00:25:06.733Z,10.40
2019-01-26T00:27:35.171Z,8.75
2019-01-26T00:30:06.723Z,10.18
2019-01-26T00:32:35.223Z,10.05
2019-01-26T00:35:04.602Z,10.00
2019-01-26T00:37:33.036Z,9.93
2019-01-26T00:40:01.487Z,8.73
2019-01-26T00:42:30.047Z,9.88
2019-01-26T00:44:58.558Z,10.30
2019-01-26T00:47:27.007Z,10.23
2019-01-26T00:49:55.457Z,9.78
2019-01-26T00:52:23.888Z,9.18
2019-01-26T00:54:52.412Z,10.60
2019-01-26T00:57:20.822Z,10.15
2019-01-26T00:59:49.289Z,10.72
2019-01-26T01:02:17.700Z,9.90
2019-01-26T01:04:46.123Z,9.35
2019-01-26T01:07:14.637Z,10.53
2019-01-26T01:09:43.100Z,9.13
2019-01-26T01:12:11.702Z,10.00
2019-01-26T01:14:40.127Z,10.13
2019-01-26T01:17:08.586Z,10.28
2019-01-26T01:19:36.997Z,9.98
2019-01-26T01:22:05.506Z,10.20
2019-01-26T01:24:33.935Z,11.48
2019-01-26T01:27:02.386Z,10.20
2019-01-26T01:29:32.354Z,11.10
2019-01-26T01:32:00.809Z,10.75
2019-01-26T01:34:29.244Z,10.98
2019-01-26T01:36:57.758Z,11.00
2019-01-26T01:39:26.239Z,10.58
2019-01-26T01:41:54.710Z,10.60
2019-01-26T01:44:23.142Z,10.43
2019-01-26T01:46:51.579Z,12.50
2019-01-26T01:49:20.002Z,9.88
2019-01-26T01:51:48.448Z,10.35
2019-01-26T01:54:16.950Z,10.32
2019-01-26T01:56:45.411Z,11.08
2019-01-26T01:59:13.835Z,10.50
2019-01-26T02:01:42.272Z,10.68
2019-01-26T02:04:10.695Z,9.70
2019-01-26T02:06:39.133Z,10.32
2019-01-26T02:09:08.326Z,11.78
2019-01-26T02:11:36.747Z,10.30
2019-01-26T02:14:06.075Z,11.93
2019-01-26T02:16:34.637Z,11.05
2019-01-26T02:19:03.085Z,10.23
2019-01-26T02:21:31.709Z,8.30
2019-01-26T02:24:00.260Z,9.25
2019-01-26T02:26:28.739Z,10.48
2019-01-26T02:28:57.195Z,10.30
2019-01-26T02:31:25.761Z,10.58
2019-01-26T02:33:54.202Z,9.35
2019-01-26T02:36:22.626Z,11.10
2019-01-26T02:38:51.069Z,9.80
2019-01-26T02:41:19.495Z,10.55
2019-01-26T02:43:48.017Z,12.07
2019-01-26T02:46:16.464Z,9.48
2019-01-26T02:48:44.908Z,10.60
2019-01-26T02:51:13.327Z,10.05
2019-01-26T02:53:41.815Z,11.00
2019-01-26T02:56:10.270Z,9.15
2019-01-26T02:58:59.616Z,11.15
2019-01-26T03:01:28.062Z,10.93
2019-01-26T03:03:56.679Z,12.70
2019-01-26T03:06:25.174Z,10.93
2019-01-26T03:08:53.672Z,10.63
2019-01-26T03:11:22.194Z,9.38
2019-01-26T03:13:50.621Z,8.73
2019-01-26T03:16:19.103Z,8.83
2019-01-26T03:18:47.525Z,8.65
2019-01-26T03:21:15.972Z,8.23
2019-01-26T03:23:44.582Z,9.10
2019-01-26T03:26:13.025Z,9.18
2019-01-26T03:28:41.480Z,8.73
2019-01-26T03:31:10.001Z,9.15
2019-01-26T03:33:38.423Z,9.80
2019-01-26T03:36:06.878Z,9.58
2019-01-26T03:38:35.317Z,13.32
2019-01-26T03:41:04.032Z,13.25
2019-01-26T03:43:32.457Z,10.20
2019-01-26T03:46:00.884Z,9.88
2019-01-26T03:48:29.476Z,10.18
2019-01-26T03:50:57.914Z,11.83
2019-01-26T03:53:26.368Z,10.65
2019-01-26T03:55:54.803Z,9.73
2019-01-26T03:58:23.379Z,10.15
2019-01-26T04:00:51.883Z,11.22
2019-01-26T04:03:20.406Z,10.08
2019-01-26T04:05:48.839Z,9.65
2019-01-26T04:08:17.298Z,10.90
2019-01-26T04:10:45.744Z,11.05
2019-01-26T04:13:14.190Z,11.95
2019-01-26T04:15:42.789Z,9.68
2019-01-26T04:18:11.243Z,11.75
2019-01-26T04:20:39.668Z,19.17
2019-01-26T04:23:08.093Z,21.73
2019-01-26T04:25:36.549Z,11.45
2019-01-26T06:39:16.507Z,15.05
2019-01-26T06:41:44.921Z,18.62
2019-01-26T06:44:13.386Z,17.60
2019-01-26T06:46:41.817Z,16.48
2019-01-26T06:49:10.463Z,17.57
2019-01-26T06:51:40.572Z,16.75
2019-01-26T06:54:09.096Z,18.45
2019-01-26T06:56:37.514Z,19.73
2019-01-26T06:59:06.044Z,18.60
2019-01-26T07:01:34.467Z,16.20
2019-01-26T07:04:02.922Z,16.77
2019-01-26T07:06:32.999Z,17.55
2019-01-26T07:09:01.446Z,16.30
2019-01-26T07:11:29.870Z,15.88
2019-01-26T07:13:58.318Z,16.17
2019-01-26T07:16:26.813Z,13.72
2019-01-26T07:18:55.270Z,13.68
2019-01-26T07:21:23.696Z,16.02
2019-01-26T07:23:52.143Z,12.13
2019-01-26T07:26:20.562Z,12.15
2019-01-26T07:28:49.082Z,13.28
2019-01-26T07:31:17.659Z,13.05
2019-01-26T07:33:46.101Z,13.22
2019-01-26T07:36:14.528Z,12.78
2019-01-26T07:38:45.273Z,15.55
2019-01-26T07:41:13.353Z,12.60
2019-01-26T07:43:41.783Z,11.38
2019-01-26T07:46:10.223Z,12.05
2019-01-26T07:48:38.650Z,9.00
2019-01-26T07:51:07.163Z,10.82
2019-01-26T07:53:35.662Z,9.38
2019-01-26T07:56:04.455Z,8.98
2019-01-26T07:58:32.875Z,7.40
2019-01-26T08:01:01.317Z,6.70
2019-01-26T08:03:29.799Z,6.42
2019-01-26T08:05:58.255Z,5.67
2019-01-26T08:08:26.688Z,4.92
2019-01-26T08:10:55.128Z,5.20
2019-01-26T08:13:23.655Z,4.62
2019-01-26T08:15:52.159Z,5.22
2019-01-26T08:18:24.245Z,4.35
2019-01-26T08:20:50.761Z,6.10
2019-01-26T08:23:19.189Z,4.80
2019-01-26T08:25:47.636Z,5.12
2019-01-26T08:28:16.070Z,4.60
2019-01-26T08:30:44.509Z,3.87
2019-01-26T08:33:12.922Z,3.70
2019-01-26T08:35:41.507Z,4.53
2019-01-26T08:38:09.998Z,4.70
2019-01-26T08:40:38.413Z,4.05
2019-01-26T08:43:06.932Z,5.12
2019-01-26T08:45:35.338Z,4.50
2019-01-26T08:48:04.514Z,4.42
2019-01-26T08:50:32.930Z,4.40
2019-01-26T08:53:01.382Z,4.70
2019-01-26T08:55:29.804Z,6.70
2019-01-26T08:57:58.242Z,5.10
2019-01-26T09:00:28.103Z,5.87
2019-01-26T09:02:58.325Z,10.32
2019-01-26T09:05:40.379Z,5.50
2019-01-26T09:08:08.955Z,6.20
2019-01-26T09:10:37.370Z,5.85
2019-01-26T09:13:05.830Z,5.25
2019-01-26T09:15:34.390Z,6.00
2019-01-26T09:18:02.917Z,6.03
2019-01-26T09:20:31.326Z,5.83
2019-01-26T09:22:59.788Z,5.20
2019-01-26T09:25:28.194Z,5.03
2019-01-26T09:27:56.902Z,6.40
2019-01-26T09:30:25.462Z,5.65
2019-01-26T09:32:53.863Z,6.60
2019-01-26T09:35:22.367Z,5.70
2019-01-26T09:37:52.346Z,5.60
2019-01-26T09:40:22.054Z,5.53
2019-01-26T09:42:50.702Z,5.70
2019-01-26T09:45:20.201Z,6.47
2019-01-26T09:47:48.850Z,5.83
2019-01-26T09:50:18.436Z,5.22
2019-01-26T09:52:46.909Z,5.20
2019-01-26T09:55:17.390Z,5.25
2019-01-26T09:57:45.913Z,5.05
2019-01-26T10:00:18.388Z,4.92
2019-01-26T10:02:47.130Z,5.50
2019-01-26T10:05:15.933Z,5.25
2019-01-26T10:07:44.531Z,5.25
2019-01-26T10:10:15.020Z,6.03
2019-01-26T10:12:43.942Z,5.00
2019-01-26T10:15:18.431Z,4.70
2019-01-26T10:17:47.110Z,4.03
2019-01-26T10:20:21.316Z,4.50
2019-01-26T10:22:49.802Z,4.03
2019-01-26T10:25:18.685Z,3.95
2019-01-26T10:27:47.187Z,4.00
2019-01-26T10:30:22.873Z,4.03
2019-01-26T10:32:51.354Z,4.03
2019-01-26T10:35:19.807Z,3.72
2019-01-26T10:37:48.327Z,4.17
2019-01-26T10:40:21.066Z,3.92
2019-01-26T10:42:49.567Z,4.72
2019-01-26T10:45:18.048Z,4.30
2019-01-26T10:47:46.496Z,4.55
2019-01-26T10:50:14.979Z,4.08
2019-01-26T10:52:43.419Z,3.80
2019-01-26T10:55:12.179Z,3.75
2019-01-26T10:57:40.770Z,4.53
2019-01-26T11:00:12.259Z,4.28
2019-01-26T11:02:40.718Z,3.95
2019-01-26T11:05:09.670Z,4.62
2019-01-26T11:07:38.118Z,3.58
2019-01-26T11:10:09.694Z,3.95
2019-01-26T11:12:38.131Z,3.00
2019-01-26T11:15:09.623Z,3.40
2019-01-26T11:17:38.079Z,3.35
2019-01-26T11:20:14.679Z,2.40
2019-01-26T11:22:43.393Z,2.60
2019-01-26T11:25:14.931Z,2.80
2019-01-26T11:27:43.494Z,3.42
2019-01-26T11:30:14.394Z,2.75
2019-01-26T11:32:42.855Z,2.45
2019-01-26T11:35:16.291Z,2.50
2019-01-26T11:37:44.736Z,2.35
2019-01-26T11:40:15.159Z,2.60
2019-01-26T11:42:43.643Z,2.50
2019-01-26T11:45:31.915Z,2.67
2019-01-26T11:48:03.543Z,2.47
2019-01-26T11:50:33.638Z,2.00
2019-01-26T11:53:02.067Z,2.50
2019-01-26T11:55:32.136Z,2.42
2019-01-26T11:58:00.553Z,2.65
2019-01-26T12:00:47.303Z,2.70
2019-01-26T12:03:33.727Z,2.62
2019-01-26T12:06:06.554Z,1.85
2019-01-26T12:08:34.963Z,2.67
2019-01-26T12:11:03.432Z,2.40
2019-01-26T12:13:31.838Z,2.00
2019-01-26T12:16:00.383Z,2.17
2019-01-26T12:18:28.795Z,2.08
2019-01-26T12:20:57.308Z,2.10
2019-01-26T12:23:25.726Z,1.87
2019-01-26T12:25:54.171Z,2.12
2019-01-26T12:28:22.643Z,2.83
2019-01-26T12:30:51.078Z,2.55
2019-01-26T12:33:19.518Z,2.22
2019-01-26T12:35:48.023Z,2.47
2019-01-26T12:38:16.508Z,2.75
2019-01-26T12:40:45.042Z,2.62
2019-01-26T12:43:13.482Z,3.47
2019-01-26T12:45:41.931Z,2.50
2019-01-26T12:48:10.467Z,3.00
2019-01-26T12:50:39.002Z,2.77
2019-01-26T12:53:07.506Z,2.75
2019-01-26T12:55:36.035Z,2.40
2019-01-26T12:58:04.619Z,2.98
2019-01-26T13:00:34.647Z,2.50
2019-01-26T13:03:03.097Z,2.58
2019-01-26T13:05:31.522Z,2.72
2019-01-26T13:07:59.978Z,2.90
2019-01-26T13:10:43.729Z,3.10
2019-01-26T13:13:12.334Z,2.10
2019-01-26T13:15:40.790Z,2.40
2019-01-26T13:18:09.460Z,2.98
2019-01-26T13:20:37.951Z,3.25
2019-01-26T13:23:06.524Z,2.95
2019-01-26T13:25:35.506Z,3.33
2019-01-26T13:28:04.290Z,2.90
2019-01-26T13:30:32.865Z,3.75
2019-01-26T13:33:01.567Z,2.92
2019-01-26T13:35:29.973Z,3.27
2019-01-26T13:37:58.419Z,3.40
2019-01-26T13:40:32.168Z,2.98
2019-01-26T13:43:00.612Z,3.15
2019-01-26T13:45:29.018Z,3.67
2019-01-26T13:47:57.484Z,2.92
2019-01-26T13:50:25.966Z,2.92
2019-01-26T13:52:54.504Z,3.65
2019-01-26T13:55:23.843Z,2.77
2019-01-26T13:57:52.405Z,3.12
2019-01-26T14:00:26.916Z,4.55
2019-01-26T14:02:55.514Z,3.05
2019-01-26T14:05:25.810Z,3.87
2019-01-26T14:07:54.277Z,4.12
2019-01-26T14:10:24.413Z,3.30
2019-01-26T14:12:52.973Z,3.05
2019-01-26T14:15:24.112Z,3.15
2019-01-26T14:17:52.603Z,4.95
2019-01-26T14:20:31.706Z,5.03
2019-01-26T14:23:00.127Z,3.08
2019-01-26T14:25:28.622Z,4.45
2019-01-26T14:27:57.154Z,4.00
2019-01-26T14:30:34.490Z,3.55
2019-01-26T14:33:03.060Z,3.40
2019-01-26T14:35:31.526Z,4.00
2019-01-26T14:37:59.999Z,3.40
2019-01-26T14:40:28.529Z,4.20
2019-01-26T14:42:57.010Z,3.62
2019-01-26T14:45:25.593Z,3.85
2019-01-26T14:47:54.077Z,3.90
2019-01-26T14:50:25.712Z,4.40
2019-01-26T14:52:54.239Z,3.25
2019-01-26T14:55:32.484Z,3.00
2019-01-26T14:58:01.250Z,4.70
2019-01-26T15:00:35.506Z,3.83
2019-01-26T15:03:04.287Z,3.55
2019-01-26T15:05:32.955Z,5.65
2019-01-26T15:08:01.917Z,6.45
2019-01-26T15:10:30.329Z,4.75
2019-01-26T15:12:58.782Z,5.60
2019-01-26T15:15:27.225Z,3.25
2019-01-26T15:17:55.811Z,5.70
2019-01-26T15:20:27.253Z,7.85
2019-01-26T15:22:55.694Z,3.98
2019-01-26T15:25:24.256Z,3.67
2019-01-26T15:27:52.688Z,3.45
2019-01-26T15:30:27.055Z,3.70
2019-01-26T15:32:55.574Z,3.30
2019-01-26T15:35:24.319Z,4.85
2019-01-26T15:37:52.823Z,4.45
2019-01-26T15:40:21.307Z,4.87
2019-01-26T15:42:49.759Z,4.83
2019-01-26T15:45:29.999Z,5.30
2019-01-26T15:47:58.454Z,5.25
2019-01-26T15:50:26.936Z,3.87
2019-01-26T15:52:55.519Z,4.95
2019-01-26T15:55:25.892Z,4.67
2019-01-26T15:57:54.416Z,5.30
2019-01-26T16:00:25.594Z,5.10
2019-01-26T16:02:54.371Z,4.35
2019-01-26T16:05:22.899Z,4.70
2019-01-26T16:07:51.448Z,4.65
2019-01-26T16:10:22.142Z,8.60
2019-01-26T16:12:51.050Z,11.95
2019-01-26T16:15:21.755Z,12.15
2019-01-26T16:17:50.313Z,13.30
2019-01-26T16:20:20.585Z,13.13
2019-01-26T16:22:49.454Z,13.90
2019-01-26T16:25:18.323Z,15.75
2019-01-26T16:27:46.843Z,12.90
2019-01-26T16:30:27.338Z,12.60
2019-01-26T16:32:55.831Z,12.60
2019-01-26T16:35:24.528Z,12.35
2019-01-26T16:37:53.028Z,13.05
2019-01-26T16:40:24.414Z,14.63
2019-01-26T16:42:52.904Z,13.45
2019-01-26T16:45:24.448Z,15.38
2019-01-26T16:47:52.934Z,13.70
2019-01-26T16:50:27.895Z,13.50
2019-01-26T16:52:54.155Z,11.60
2019-01-26T16:55:22.722Z,12.58
2019-01-26T16:57:51.386Z,12.28
2019-01-26T17:00:29.257Z,12.73
2019-01-26T17:02:57.801Z,12.05
2019-01-26T17:05:26.298Z,12.80
2019-01-26T17:07:55.000Z,14.20
2019-01-26T17:10:23.726Z,13.28
2019-01-26T17:12:52.407Z,14.90
2019-01-26T17:15:20.970Z,14.40
2019-01-26T17:17:49.646Z,14.40
2019-01-26T17:20:34.913Z,12.82
2019-01-26T17:22:59.835Z,14.07
2019-01-26T17:25:28.335Z,14.58
2019-01-26T17:27:56.851Z,14.70
2019-01-26T17:30:30.644Z,15.28
2019-01-26T17:32:59.342Z,14.38
2019-01-26T17:35:27.905Z,15.25
2019-01-26T17:37:56.672Z,16.40
2019-01-26T17:40:26.628Z,14.65
2019-01-26T17:42:55.164Z,16.75
2019-01-26T17:45:24.046Z,15.15
2019-01-26T17:47:53.390Z,15.50
2019-01-26T17:50:26.690Z,16.27
2019-01-26T17:52:55.274Z,16.67
2019-01-26T17:55:23.729Z,16.73
2019-01-26T17:57:52.196Z,17.02
2019-01-26T18:00:33.121Z,15.53
2019-01-26T18:03:01.671Z,14.35
2019-01-26T18:05:30.253Z,14.63
2019-01-26T18:07:58.748Z,16.80
2019-01-26T18:10:28.168Z,17.02
2019-01-26T18:12:57.336Z,15.80
2019-01-26T18:15:25.867Z,18.00
2019-01-26T18:17:54.441Z,16.20
2019-01-26T18:20:29.879Z,16.02
2019-01-26T18:22:59.771Z,16.15
2019-01-26T18:25:39.074Z,14.60
2019-01-26T18:28:07.936Z,16.75
2019-01-26T18:30:39.191Z,17.90
2019-01-26T18:33:07.629Z,17.85
2019-01-26T18:35:36.330Z,18.17
2019-01-26T18:38:05.495Z,18.00
2019-01-26T18:40:34.116Z,18.65
2019-01-26T18:43:02.611Z,17.57
2019-01-26T18:45:32.637Z,17.52
2019-01-26T18:48:01.111Z,18.05
2019-01-26T18:50:42.069Z,18.37
2019-01-26T18:53:10.576Z,20.90
2019-01-26T18:55:39.017Z,22.95
2019-01-26T18:58:07.498Z,38.35
2019-01-26T19:00:39.046Z,44.83
2019-01-26T19:03:12.279Z,28.17
2019-01-26T19:05:40.790Z,25.70
2019-01-26T19:08:09.890Z,22.85
2019-01-26T19:10:38.419Z,20.68
2019-01-26T19:13:07.083Z,19.05
2019-01-26T19:15:35.652Z,15.90
2019-01-26T19:18:04.590Z,16.52
2019-01-26T19:20:34.549Z,15.00
2019-01-26T19:23:03.090Z,15.40
2019-01-26T19:25:31.543Z,14.35
2019-01-26T19:28:00.066Z,14.65
2019-01-26T19:30:30.101Z,13.05
2019-01-26T19:32:58.555Z,12.98
2019-01-26T19:35:27.038Z,15.32
2019-01-26T19:37:55.724Z,14.98
2019-01-26T19:40:25.015Z,16.55
2019-01-26T19:42:53.595Z,15.23
2019-01-26T19:45:25.338Z,16.32
2019-01-26T19:47:53.778Z,15.32
2019-01-26T19:50:24.314Z,16.97
2019-01-26T19:52:52.911Z,18.32
2019-01-26T19:55:23.464Z,17.35
2019-01-26T19:57:52.648Z,28.35
2019-01-26T20:00:22.848Z,28.45
2019-01-26T20:02:51.338Z,24.20
2019-01-26T20:05:23.973Z,20.90
2019-01-26T20:07:52.867Z,16.73
2019-01-26T20:10:21.934Z,17.65
2019-01-26T20:12:50.502Z,19.23
2019-01-26T20:15:22.076Z,18.27
2019-01-26T20:17:50.734Z,16.07
2019-01-26T20:20:22.389Z,14.33
2019-01-26T20:22:50.871Z,15.32
2019-01-26T20:25:19.469Z,14.78
2019-01-26T20:27:48.047Z,13.00
2019-01-26T20:30:19.515Z,19.30
2019-01-26T20:32:49.650Z,21.40
2019-01-26T20:35:18.105Z,24.77
2019-01-26T20:37:46.631Z,23.22
2019-01-26T20:40:17.945Z,23.65
2019-01-26T20:42:46.516Z,14.78
2019-01-26T20:45:20.504Z,14.25
2019-01-26T20:47:49.098Z,13.68
2019-01-26T20:50:17.705Z,14.15
2019-01-26T20:52:46.199Z,13.40
2019-01-26T20:55:14.805Z,13.35
2019-01-26T20:57:43.462Z,13.38
2019-01-26T21:00:26.260Z,15.65
2019-01-26T21:02:54.819Z,13.13
2019-01-26T21:05:24.265Z,13.40
2019-01-26T21:07:52.771Z,14.40
2019-01-26T21:10:29.246Z,12.53
2019-01-26T21:12:58.440Z,13.30
2019-01-26T21:15:27.079Z,13.78
2019-01-26T21:17:55.668Z,15.50
2019-01-26T21:20:25.983Z,15.00
2019-01-26T21:22:54.531Z,13.70
2019-01-26T21:25:23.362Z,15.60
2019-01-26T21:27:52.131Z,15.50
2019-01-26T21:30:22.999Z,15.65
2019-01-26T21:32:51.460Z,17.45
2019-01-26T21:35:20.290Z,14.60
2019-01-26T21:37:50.351Z,14.80
2019-01-26T21:40:21.698Z,12.70
2019-01-26T21:42:50.231Z,12.40
2019-01-26T21:45:19.008Z,13.38
2019-01-26T21:47:47.511Z,11.68
2019-01-26T21:50:21.278Z,14.33
2019-01-26T21:52:50.018Z,12.53
2019-01-26T21:55:19.174Z,11.65
2019-01-26T21:57:47.618Z,12.13
2019-01-26T22:00:18.846Z,14.20
2019-01-26T22:02:47.299Z,12.35
2019-01-26T22:05:15.799Z,12.28
2019-01-26T22:07:44.246Z,13.55
2019-01-26T22:10:15.321Z,14.53
2019-01-26T22:12:43.850Z,15.45
2019-01-26T22:15:15.279Z,15.05
2019-01-26T22:17:43.766Z,13.45
2019-01-26T22:20:15.078Z,14.83
2019-01-26T22:22:43.554Z,13.30
2019-01-26T22:25:13.851Z,16.62
2019-01-26T22:27:42.418Z,19.05
2019-01-26T22:30:24.958Z,15.08
2019-01-26T22:32:55.006Z,12.60
2019-01-26T22:35:23.594Z,12.88
2019-01-26T22:37:52.022Z,12.25
2019-01-26T22:40:32.002Z,13.85
2019-01-26T22:43:00.763Z,13.40
2019-01-26T22:45:29.579Z,12.18
2019-01-26T22:47:58.059Z,11.28
2019-01-26T22:50:28.772Z,12.37
2019-01-26T22:52:57.439Z,13.95
2019-01-26T22:55:26.662Z,14.33
2019-01-26T22:57:55.223Z,14.45
2019-01-26T23:00:55.506Z,14.25
2019-01-26T23:03:38.845Z,13.85
2019-01-26T23:06:32.959Z,15.00
2019-01-26T23:09:06.096Z,15.18
2019-01-26T23:11:46.626Z,14.85
2019-01-26T23:14:30.992Z,14.93
2019-01-26T23:17:17.579Z,15.65
2019-01-26T23:19:52.173Z,15.32
2019-01-26T23:22:49.392Z,15.05
2019-01-26T23:25:32.698Z,13.95
2019-01-26T23:28:12.930Z,16.55
2019-01-26T23:31:02.595Z,16.15
2019-01-26T23:33:31.093Z,15.05
2019-01-26T23:35:59.631Z,15.55
2019-01-26T23:38:28.225Z,15.08
2019-01-26T23:40:56.652Z,18.50
2019-01-26T23:43:25.177Z,14.68
2019-01-26T23:45:53.662Z,14.50
2019-01-26T23:48:23.650Z,12.88
2019-01-26T23:50:52.079Z,14.25
2019-01-26T23:53:20.533Z,14.20
2019-01-26T23:55:48.959Z,13.90
2019-01-26T23:58:17.532Z,13.70
